createdAt,value
2023-03-01T00:02:01.043Z,77.43
2023-03-01T00:07:03.550Z,77.43
2023-03-01T00:18:55.028Z,78.03
2023-03-01T00:23:58.157Z,78.57
2023-03-01T00:29:00.986Z,78.93
2023-03-01T00:34:05.862Z,79.59
2023-03-01T00:39:13.122Z,79.61
2023-03-01T00:44:15.658Z,79.64
2023-03-01T00:49:18.183Z,79.46
2023-03-01T00:54:20.650Z,79.84
2023-03-01T00:59:23.141Z,79.86
2023-03-01T01:04:25.653Z,79.62
2023-03-01T01:09:28.134Z,79.56
2023-03-01T01:14:30.821Z,79.50
2023-03-01T01:19:35.699Z,79.38
2023-03-01T01:24:38.278Z,79.52
2023-03-01T01:29:40.944Z,79.78
2023-03-01T01:34:43.564Z,80.05
2023-03-01T01:39:46.060Z,80.11
2023-03-01T01:44:49.048Z,80.48
2023-03-01T01:49:55.794Z,80.50
2023-03-01T01:55:06.353Z,80.69
2023-03-01T02:00:13.708Z,80.83
2023-03-01T02:05:25.820Z,80.72
2023-03-01T02:10:29.916Z,80.71
2023-03-01T02:15:34.703Z,80.74
2023-03-01T02:21:04.877Z,80.81
2023-03-01T02:26:14.785Z,81.06
2023-03-01T02:31:22.649Z,81.41
2023-03-01T02:36:35.157Z,81.57
2023-03-01T02:41:39.348Z,81.33
2023-03-01T02:46:47.649Z,80.69
2023-03-01T02:51:55.943Z,80.58
2023-03-01T02:56:58.658Z,80.75
2023-03-01T03:02:01.939Z,80.95
2023-03-01T03:07:04.432Z,80.64
2023-03-01T03:12:07.007Z,80.51
2023-03-01T03:17:09.622Z,80.52
2023-03-01T03:22:13.352Z,80.24
2023-03-01T03:27:15.854Z,80.14
2023-03-01T03:32:18.385Z,80.22
2023-03-01T03:37:23.826Z,80.21
2023-03-01T03:42:26.319Z,80.34
2023-03-01T03:47:28.787Z,79.81
2023-03-01T03:52:31.277Z,79.88
2023-03-01T03:57:33.777Z,80.01
2023-03-01T04:02:36.342Z,79.84
2023-03-01T04:07:39.714Z,80.02
2023-03-01T04:12:44.053Z,80.04
2023-03-01T04:17:47.570Z,79.85
2023-03-01T04:22:50.042Z,79.92
2023-03-01T04:27:52.951Z,79.80
2023-03-01T04:32:55.610Z,79.61
2023-03-01T04:37:58.822Z,79.65
2023-03-01T04:43:02.231Z,80.00
2023-03-01T04:48:05.141Z,79.59
2023-03-01T04:53:07.669Z,79.60
2023-03-01T04:58:10.427Z,80.08
2023-03-01T05:03:13.077Z,80.29
2023-03-01T05:08:18.305Z,80.18
2023-03-01T05:13:21.942Z,79.95
2023-03-01T05:18:27.047Z,80.13
2023-03-01T05:23:29.616Z,79.88
2023-03-01T05:35:33.991Z,80.01
2023-03-01T05:40:36.641Z,79.84
2023-03-01T05:45:39.587Z,80.05
2023-03-01T05:50:44.387Z,80.60
2023-03-01T05:55:48.279Z,80.27
2023-03-01T06:00:52.043Z,80.02
2023-03-01T06:05:58.459Z,79.93
2023-03-01T06:11:01.111Z,79.95
2023-03-01T06:16:07.331Z,79.84
2023-03-01T06:21:10.011Z,79.71
2023-03-01T06:33:25.212Z,79.28
2023-03-01T06:38:27.749Z,79.06
2023-03-01T06:43:30.416Z,78.99
2023-03-01T06:48:33.218Z,78.68
2023-03-01T06:53:36.253Z,78.13
2023-03-01T06:58:38.819Z,77.70
2023-03-01T07:03:41.337Z,77.71
2023-03-01T07:08:44.126Z,77.67
2023-03-01T07:13:46.628Z,77.11
2023-03-01T07:18:49.169Z,77.56
2023-03-01T07:30:45.843Z,76.98
2023-03-01T07:35:48.389Z,76.62
2023-03-01T07:40:51.034Z,76.34
2023-03-01T07:45:53.569Z,75.14
2023-03-01T07:50:59.688Z,76.08
2023-03-01T07:56:05.379Z,76.13
2023-03-01T08:01:11.045Z,75.59
2023-03-01T08:06:15.805Z,75.43
2023-03-01T08:11:18.633Z,75.15
2023-03-01T08:16:21.189Z,74.24
2023-03-01T08:21:23.724Z,73.16
2023-03-01T08:26:26.186Z,73.73
2023-03-01T08:31:36.501Z,73.59
2023-03-01T08:36:42.406Z,72.61
2023-03-01T08:41:47.132Z,72.74
2023-03-01T08:46:52.267Z,72.74
2023-03-01T08:51:55.287Z,71.95
2023-03-01T08:56:59.849Z,72.11
2023-03-01T09:02:02.423Z,71.57
2023-03-01T09:07:05.365Z,71.91
2023-03-01T09:12:07.884Z,70.62
2023-03-01T09:17:10.588Z,71.54
2023-03-01T09:22:13.129Z,71.41
2023-03-01T09:27:15.702Z,71.17
2023-03-01T09:32:18.371Z,71.62
2023-03-01T09:37:21.546Z,70.23
2023-03-01T09:42:24.598Z,67.45
2023-03-01T09:47:33.399Z,66.96
2023-03-01T09:52:39.914Z,66.57
2023-03-01T09:57:51.415Z,66.01
2023-03-01T10:03:01.038Z,65.30
2023-03-01T10:08:03.548Z,65.59
2023-03-01T10:13:15.722Z,65.61
2023-03-01T10:18:22.177Z,64.47
2023-03-01T10:23:26.169Z,63.27
2023-03-01T10:28:51.806Z,63.17
2023-03-01T10:33:56.343Z,64.15
2023-03-01T10:38:58.989Z,63.93
2023-03-01T10:44:01.704Z,65.23
2023-03-01T10:49:07.124Z,64.18
2023-03-01T10:54:15.447Z,65.51
2023-03-01T10:59:26.141Z,64.21
2023-03-01T11:04:28.735Z,64.37
2023-03-01T11:09:39.279Z,64.87
2023-03-01T11:14:57.047Z,63.45
2023-03-01T11:20:09.065Z,62.90
2023-03-01T11:25:15.313Z,63.24
2023-03-01T11:30:31.768Z,63.61
2023-03-01T11:35:38.973Z,63.53
2023-03-01T11:40:48.595Z,63.47
2023-03-01T11:45:51.095Z,63.37
2023-03-01T11:50:57.603Z,63.48
2023-03-01T11:56:05.961Z,63.96
2023-03-01T12:01:09.495Z,63.71
2023-03-01T12:06:15.881Z,64.07
2023-03-01T12:11:23.861Z,61.07
2023-03-01T12:16:38.804Z,62.56
2023-03-01T12:21:50.210Z,61.94
2023-03-01T12:27:01.160Z,61.52
2023-03-01T12:32:12.105Z,61.03
2023-03-01T12:37:26.086Z,60.77
2023-03-01T12:42:36.105Z,61.09
2023-03-01T12:47:50.669Z,61.57
2023-03-01T12:52:58.446Z,60.08
2023-03-01T12:58:08.530Z,59.80
2023-03-01T13:03:16.897Z,59.69
2023-03-01T13:08:25.000Z,60.66
2023-03-01T13:13:29.396Z,60.74
2023-03-01T13:18:33.346Z,60.44
2023-03-01T13:23:39.192Z,60.95
2023-03-01T13:28:45.693Z,61.22
2023-03-01T13:33:52.632Z,60.92
2023-03-01T13:38:55.907Z,61.27
2023-03-01T13:43:58.699Z,61.01
2023-03-01T13:49:01.464Z,60.23
2023-03-01T13:54:04.853Z,60.91
2023-03-01T13:59:20.993Z,60.82
2023-03-01T14:04:28.763Z,60.54
2023-03-01T14:09:34.300Z,60.60
2023-03-01T14:14:53.012Z,61.20
2023-03-01T14:19:59.394Z,60.89
2023-03-01T14:25:17.382Z,61.07
2023-03-01T14:30:23.856Z,61.40
2023-03-01T14:35:30.455Z,61.61
2023-03-01T14:40:36.076Z,61.84
2023-03-01T14:45:38.738Z,61.27
2023-03-01T14:50:44.244Z,60.28
2023-03-01T14:55:51.491Z,59.72
2023-03-01T15:01:01.524Z,58.40
2023-03-01T15:06:06.167Z,57.46
2023-03-01T15:11:14.855Z,58.09
2023-03-01T15:16:24.036Z,58.88
2023-03-01T15:21:35.255Z,59.80
2023-03-01T15:26:47.849Z,61.13
2023-03-01T15:32:27.058Z,62.42
2023-03-01T15:37:46.173Z,63.82
2023-03-01T15:42:48.759Z,64.94
2023-03-01T15:48:05.220Z,66.13
2023-03-01T15:53:12.923Z,67.17
2023-03-01T15:58:26.790Z,68.86
2023-03-01T16:03:30.752Z,69.84
2023-03-01T16:08:33.461Z,70.67
2023-03-01T16:13:36.623Z,71.43
2023-03-01T16:18:40.096Z,72.58
2023-03-01T16:23:44.324Z,74.11
2023-03-01T16:28:47.043Z,74.67
2023-03-01T16:33:53.517Z,76.77
2023-03-01T16:38:59.807Z,78.04
2023-03-01T16:44:02.343Z,78.94
2023-03-01T16:49:04.884Z,79.65
2023-03-01T16:54:07.436Z,80.17
2023-03-01T16:59:10.691Z,80.77
2023-03-01T17:04:13.920Z,81.27
2023-03-01T17:09:18.064Z,81.32
2023-03-01T17:14:21.242Z,81.57
2023-03-01T17:19:23.894Z,81.83
2023-03-01T17:24:27.409Z,82.04
2023-03-01T17:29:30.750Z,82.21
2023-03-01T17:34:34.078Z,82.33
2023-03-01T17:39:36.712Z,82.47
2023-03-01T17:44:39.302Z,82.61
2023-03-01T17:49:41.813Z,82.88
2023-03-01T17:54:44.323Z,83.09
2023-03-01T17:59:46.868Z,84.26
2023-03-01T18:04:49.644Z,84.60
2023-03-01T18:09:52.358Z,84.99
2023-03-01T18:14:55.311Z,85.37
2023-03-01T18:19:58.885Z,85.79
2023-03-01T18:25:01.490Z,85.54
2023-03-01T18:30:10.614Z,85.63
2023-03-01T18:35:13.155Z,85.86
2023-03-01T18:40:16.012Z,85.76
2023-03-01T18:45:19.301Z,85.54
2023-03-01T18:50:21.862Z,85.36
2023-03-01T18:55:24.569Z,85.31
2023-03-01T19:00:27.219Z,85.71
2023-03-01T19:05:30.812Z,85.90
2023-03-01T19:10:33.496Z,85.82
2023-03-01T19:15:36.119Z,85.59
2023-03-01T19:20:39.622Z,85.71
2023-03-01T19:25:43.043Z,85.81
2023-03-01T19:30:45.891Z,85.73
2023-03-01T19:35:49.097Z,85.70
2023-03-01T19:40:51.994Z,85.66
2023-03-01T19:45:55.652Z,85.80
2023-03-01T19:50:58.579Z,85.63
2023-03-01T19:56:02.597Z,85.30
2023-03-01T20:01:05.555Z,85.08
2023-03-01T20:06:11.282Z,85.01
2023-03-01T20:11:15.817Z,85.20
2023-03-01T20:16:19.961Z,85.21
2023-03-01T20:21:24.842Z,85.29
2023-03-01T20:26:28.467Z,85.17
2023-03-01T20:31:31.375Z,84.95
2023-03-01T20:36:35.092Z,84.02
2023-03-01T20:41:39.236Z,84.37
2023-03-01T20:46:42.030Z,84.41
2023-03-01T20:51:44.700Z,84.47
2023-03-01T20:56:47.630Z,84.60
2023-03-01T21:01:50.583Z,84.38
2023-03-01T21:06:53.106Z,84.26
2023-03-01T21:11:55.742Z,85.02
2023-03-01T21:16:58.233Z,85.05
2023-03-01T21:22:00.761Z,84.93
2023-03-01T21:27:06.496Z,85.32
2023-03-01T21:32:10.514Z,85.79
2023-03-01T21:37:13.174Z,86.05
2023-03-01T21:42:15.671Z,86.07
2023-03-01T21:47:18.187Z,86.50
2023-03-01T21:52:20.758Z,87.11
2023-03-01T21:57:23.313Z,87.14
2023-03-01T22:02:25.797Z,86.81
2023-03-01T22:07:30.346Z,86.89
2023-03-01T22:12:33.232Z,87.30
2023-03-01T22:17:35.868Z,87.56
2023-03-01T22:22:38.443Z,87.90
2023-03-01T22:27:41.062Z,88.26
2023-03-01T22:32:43.701Z,88.40
2023-03-01T22:37:47.423Z,89.23
2023-03-01T22:42:50.043Z,89.09
2023-03-01T22:47:52.610Z,89.26
2023-03-01T22:52:56.250Z,89.61
2023-03-01T22:57:58.782Z,89.75
2023-03-01T23:03:01.832Z,89.42
2023-03-01T23:08:04.790Z,89.57
2023-03-01T23:13:07.316Z,89.68
2023-03-01T23:18:09.796Z,89.97
2023-03-01T23:23:12.267Z,89.55
2023-03-01T23:28:14.845Z,89.31
2023-03-01T23:33:17.322Z,88.85
2023-03-01T23:38:20.658Z,88.38
2023-03-01T23:43:23.279Z,88.39
2023-03-01T23:48:25.762Z,88.36
2023-03-01T23:53:28.333Z,87.71
2023-03-01T23:58:31.005Z,87.70
